createdAt,value
2023-05-14T00:01:17.489Z,2.35
2023-05-14T00:03:44.890Z,2.33
2023-05-14T00:06:12.364Z,2.30
2023-05-14T00:08:39.694Z,2.30
2023-05-14T00:11:09.213Z,2.50
2023-05-14T00:13:37.034Z,2.28
2023-05-14T00:16:04.725Z,2.30
2023-05-14T00:18:32.303Z,2.08
2023-05-14T00:20:59.648Z,2.65
2023-05-14T00:23:26.992Z,1.83
2023-05-14T00:25:54.381Z,2.30
2023-05-14T00:28:22.029Z,1.85
2023-05-14T00:30:49.700Z,2.20
2023-05-14T00:33:17.886Z,2.30
2023-05-14T00:35:45.261Z,2.17
2023-05-14T00:38:17.338Z,2.47
2023-05-14T00:40:46.134Z,2.10
2023-05-14T00:43:13.653Z,1.95
2023-05-14T00:45:41.136Z,2.22
2023-05-14T00:48:08.569Z,2.05
2023-05-14T00:50:36.179Z,2.65
2023-05-14T00:53:04.358Z,2.13
2023-05-14T00:55:32.207Z,2.55
2023-05-14T00:57:59.841Z,1.80
2023-05-14T01:00:27.382Z,2.35
2023-05-14T01:02:54.875Z,1.90
2023-05-14T01:05:24.549Z,2.22
2023-05-14T01:10:39.798Z,2.00
2023-05-14T01:15:45.503Z,3.00
2023-05-14T01:18:14.904Z,2.72
2023-05-14T01:20:43.212Z,2.65
2023-05-14T01:23:10.616Z,1.92
2023-05-14T01:25:38.150Z,2.20
2023-05-14T01:28:28.573Z,2.72
2023-05-14T01:31:16.150Z,2.55
2023-05-14T01:33:44.205Z,1.92
2023-05-14T01:36:11.530Z,3.45
2023-05-14T01:38:39.925Z,2.58
2023-05-14T01:41:07.265Z,2.13
2023-05-14T01:43:35.307Z,2.13
2023-05-14T01:46:05.150Z,2.22
2023-05-14T01:48:32.809Z,2.08
2023-05-14T01:51:00.141Z,2.08
2023-05-14T01:53:27.367Z,2.40
2023-05-14T01:55:54.693Z,2.53
2023-05-14T01:58:22.189Z,2.10
2023-05-14T02:00:49.528Z,2.55
2023-05-14T02:03:16.889Z,2.58
2023-05-14T02:05:44.231Z,2.35
2023-05-14T02:08:11.609Z,2.50
2023-05-14T02:10:38.935Z,2.45
2023-05-14T02:13:06.471Z,2.25
2023-05-14T02:15:33.843Z,1.90
2023-05-14T02:18:01.424Z,2.22
2023-05-14T02:20:29.089Z,2.35
2023-05-14T02:22:56.436Z,2.63
2023-05-14T02:25:23.742Z,2.05
2023-05-14T02:27:51.116Z,2.70
2023-05-14T02:30:18.531Z,2.92
2023-05-14T02:32:46.312Z,2.50
2023-05-14T02:35:13.808Z,2.25
2023-05-14T02:37:41.612Z,2.45
2023-05-14T02:40:09.647Z,2.55
2023-05-14T02:42:36.912Z,1.80
2023-05-14T02:45:04.530Z,2.53
2023-05-14T02:47:36.101Z,2.30
2023-05-14T02:50:06.676Z,2.15
2023-05-14T02:52:34.318Z,2.60
2023-05-14T02:55:02.325Z,3.03
2023-05-14T03:00:00.552Z,2.30
2023-05-14T03:02:31.954Z,2.35
2023-05-14T03:04:59.900Z,2.65
2023-05-14T03:07:27.215Z,3.15
2023-05-14T03:09:54.571Z,2.63
2023-05-14T03:12:22.131Z,2.65
2023-05-14T03:14:49.468Z,2.42
2023-05-14T03:17:16.848Z,2.83
2023-05-14T03:19:44.184Z,2.65
2023-05-14T03:22:11.545Z,2.70
2023-05-14T03:24:40.548Z,2.47
2023-05-14T03:27:07.966Z,2.42
2023-05-14T03:29:35.380Z,2.60
2023-05-14T03:32:02.724Z,3.30
2023-05-14T03:34:30.154Z,2.47
2023-05-14T03:36:57.924Z,2.42
2023-05-14T03:39:25.210Z,2.53
2023-05-14T03:41:52.603Z,2.33
2023-05-14T03:44:19.953Z,1.95
2023-05-14T03:46:47.410Z,2.30
2023-05-14T03:49:14.861Z,2.42
2023-05-14T03:51:42.139Z,2.03
2023-05-14T03:54:10.157Z,1.92
2023-05-14T03:56:37.513Z,2.05
2023-05-14T03:59:04.826Z,2.40
2023-05-14T04:01:32.819Z,2.45
2023-05-14T04:04:00.273Z,1.80
2023-05-14T04:06:27.797Z,2.10
2023-05-14T04:08:55.667Z,2.22
2023-05-14T04:11:23.237Z,2.10
2023-05-14T04:13:50.799Z,2.30
2023-05-14T04:16:18.239Z,2.00
2023-05-14T04:18:46.204Z,1.88
2023-05-14T04:21:13.636Z,2.10
2023-05-14T04:23:41.206Z,1.70
2023-05-14T04:26:08.832Z,1.67
2023-05-14T04:28:36.172Z,1.70
2023-05-14T04:31:04.115Z,2.20
2023-05-14T04:33:31.386Z,1.70
2023-05-14T04:35:58.716Z,2.05
2023-05-14T04:38:26.124Z,2.08
2023-05-14T04:40:53.428Z,2.00
2023-05-14T04:43:20.834Z,2.25
2023-05-14T04:45:48.135Z,1.98
2023-05-14T04:48:15.690Z,2.10
2023-05-14T04:50:44.506Z,2.00
2023-05-14T04:53:11.970Z,1.92
2023-05-14T04:55:39.295Z,1.92
2023-05-14T04:58:06.663Z,2.03
2023-05-14T05:00:34.448Z,2.42
2023-05-14T05:03:02.011Z,1.92
2023-05-14T05:05:29.525Z,1.50
2023-05-14T05:07:56.870Z,1.98
2023-05-14T05:10:24.601Z,2.67
2023-05-14T05:12:52.243Z,2.10
2023-05-14T05:15:19.936Z,1.85
2023-05-14T05:17:47.309Z,2.60
2023-05-14T05:20:14.873Z,1.90
2023-05-14T05:22:42.253Z,2.00
2023-05-14T05:25:09.704Z,2.65
2023-05-14T05:27:37.074Z,2.33
2023-05-14T05:30:05.057Z,1.83
2023-05-14T05:32:35.213Z,2.25
2023-05-14T05:35:02.868Z,1.90
2023-05-14T05:37:31.205Z,1.50
2023-05-14T05:39:58.574Z,2.05
2023-05-14T05:42:26.366Z,2.38
2023-05-14T05:45:09.417Z,2.45
2023-05-14T05:47:36.883Z,2.00
2023-05-14T05:50:04.710Z,1.40
2023-05-14T05:52:32.568Z,1.80
2023-05-14T05:55:00.038Z,2.03
2023-05-14T05:57:27.815Z,1.95
2023-05-14T05:59:55.439Z,1.23
2023-05-14T06:02:23.135Z,1.25
2023-05-14T06:04:50.597Z,1.70
2023-05-14T06:07:33.735Z,1.45
2023-05-14T06:10:21.209Z,1.67
2023-05-14T06:13:04.414Z,1.27
2023-05-14T06:15:32.011Z,1.30
2023-05-14T06:17:59.610Z,1.10
2023-05-14T06:20:27.112Z,1.30
2023-05-14T06:22:54.620Z,1.30
2023-05-14T06:25:22.181Z,1.13
2023-05-14T06:27:49.687Z,0.90
2023-05-14T06:30:17.380Z,1.23
2023-05-14T06:32:44.917Z,1.50
2023-05-14T06:35:12.614Z,1.00
2023-05-14T06:37:40.111Z,1.02
2023-05-14T06:40:08.231Z,1.30
2023-05-14T06:42:35.812Z,0.90
2023-05-14T06:45:06.521Z,0.90
2023-05-14T06:47:45.871Z,1.10
2023-05-14T06:50:13.377Z,1.33
2023-05-14T06:52:40.933Z,1.40
2023-05-14T06:55:08.775Z,0.95
2023-05-14T06:57:37.274Z,1.10
2023-05-14T07:00:06.420Z,1.00
2023-05-14T07:02:46.473Z,0.90
2023-05-14T07:05:14.031Z,0.80
2023-05-14T07:07:41.624Z,0.70
2023-05-14T07:10:09.535Z,0.85
2023-05-14T07:12:37.521Z,0.88
2023-05-14T07:15:05.610Z,1.10
2023-05-14T07:17:45.945Z,0.80
2023-05-14T07:20:13.679Z,0.90
2023-05-14T07:22:41.255Z,0.88
2023-05-14T07:25:09.041Z,0.70
2023-05-14T07:27:36.539Z,0.70
2023-05-14T07:30:04.373Z,0.90
2023-05-14T07:32:33.949Z,0.90
2023-05-14T07:35:01.834Z,0.88
2023-05-14T07:37:31.724Z,0.90
2023-05-14T07:39:59.602Z,2.08
2023-05-14T07:42:35.935Z,0.73
2023-05-14T07:45:05.924Z,1.08
2023-05-14T07:47:47.233Z,0.85
2023-05-14T07:50:15.647Z,0.45
2023-05-14T07:52:43.294Z,0.70
2023-05-14T07:55:11.819Z,1.08
2023-05-14T07:57:39.817Z,0.50
2023-05-14T08:00:28.121Z,0.90
2023-05-14T08:02:56.331Z,0.70
2023-05-14T08:05:23.865Z,0.60
2023-05-14T08:07:51.445Z,0.70
2023-05-14T08:10:19.097Z,0.60
2023-05-14T08:12:47.580Z,1.33
2023-05-14T08:15:15.014Z,2.08
2023-05-14T08:17:42.484Z,0.80
2023-05-14T08:20:10.597Z,1.13
2023-05-14T08:22:38.385Z,0.80
2023-05-14T08:25:06.772Z,0.68
2023-05-14T08:27:35.655Z,0.40
2023-05-14T08:30:03.243Z,0.80
2023-05-14T08:32:33.031Z,1.80
2023-05-14T08:35:00.779Z,0.80
2023-05-14T08:37:28.500Z,0.57
2023-05-14T08:39:56.610Z,0.50
2023-05-14T08:42:26.091Z,0.90
2023-05-14T08:44:58.420Z,0.88
2023-05-14T08:47:26.195Z,1.73
2023-05-14T08:50:01.943Z,1.10
2023-05-14T08:52:30.261Z,0.60
2023-05-14T08:54:59.879Z,0.90
2023-05-14T08:57:28.568Z,0.82
2023-05-14T08:59:56.603Z,0.50
2023-05-14T09:02:26.063Z,1.13
2023-05-14T09:04:57.089Z,0.60
2023-05-14T09:07:24.608Z,0.40
2023-05-14T09:09:52.656Z,0.60
2023-05-14T09:12:20.438Z,0.68
2023-05-14T09:14:49.021Z,0.40
2023-05-14T09:17:17.260Z,0.63
2023-05-14T09:19:47.682Z,0.60
2023-05-14T09:22:17.345Z,0.47
2023-05-14T09:24:45.082Z,0.40
2023-05-14T09:27:20.452Z,0.50
2023-05-14T09:29:50.171Z,0.63
2023-05-14T09:32:19.370Z,0.93
2023-05-14T09:34:46.688Z,1.58
2023-05-14T09:37:14.182Z,1.00
2023-05-14T09:39:41.532Z,0.68
2023-05-14T09:42:09.057Z,0.30
2023-05-14T09:44:38.232Z,0.40
2023-05-14T09:47:05.829Z,0.43
2023-05-14T09:49:33.359Z,0.50
2023-05-14T09:52:02.866Z,0.80
2023-05-14T09:54:30.536Z,0.77
2023-05-14T09:56:57.943Z,0.50
2023-05-14T09:59:25.557Z,0.50
2023-05-14T10:01:53.449Z,0.50
2023-05-14T10:04:21.026Z,0.32
2023-05-14T10:06:52.175Z,0.63
2023-05-14T10:09:20.300Z,0.60
2023-05-14T10:11:50.429Z,0.57
2023-05-14T10:14:21.507Z,0.50
2023-05-14T10:19:19.259Z,0.45
2023-05-14T10:21:49.983Z,0.50
2023-05-14T10:24:18.427Z,0.45
2023-05-14T10:26:45.930Z,0.85
2023-05-14T10:29:13.446Z,0.50
2023-05-14T10:31:51.957Z,0.47
2023-05-14T10:34:41.432Z,0.50
2023-05-14T10:44:57.190Z,0.40
2023-05-14T10:47:26.404Z,0.60
2023-05-14T10:49:55.929Z,0.45
2023-05-14T10:52:24.196Z,0.60
2023-05-14T10:57:31.164Z,0.57
2023-05-14T11:00:01.344Z,0.90
2023-05-14T11:02:37.964Z,0.70
2023-05-14T11:05:09.487Z,0.63
2023-05-14T11:07:38.454Z,0.82
2023-05-14T11:12:46.761Z,1.60
2023-05-14T11:15:16.678Z,1.00
2023-05-14T11:17:45.544Z,0.60
2023-05-14T11:20:13.702Z,1.40
2023-05-14T11:22:42.483Z,0.65
2023-05-14T11:25:11.136Z,0.55
2023-05-14T11:27:39.774Z,0.95
2023-05-14T11:30:23.037Z,0.40
2023-05-14T11:33:06.285Z,0.55
2023-05-14T11:35:33.779Z,0.50
2023-05-14T11:38:01.323Z,0.40
2023-05-14T11:40:28.843Z,0.60
2023-05-14T11:42:56.209Z,0.75
2023-05-14T11:45:27.223Z,0.90
2023-05-14T11:48:15.358Z,0.60
2023-05-14T11:50:47.438Z,0.50
2023-05-14T11:53:31.458Z,0.93
2023-05-14T11:55:58.889Z,0.63
2023-05-14T11:58:26.643Z,0.60
2023-05-14T12:00:55.898Z,0.47
2023-05-14T12:03:26.501Z,0.80
2023-05-14T12:05:57.352Z,0.75
2023-05-14T12:08:30.194Z,0.70
2023-05-14T12:11:00.209Z,0.68
2023-05-14T12:13:49.440Z,0.88
2023-05-14T12:16:18.036Z,0.82
2023-05-14T12:18:45.633Z,0.73
2023-05-14T12:21:13.722Z,0.70
2023-05-14T12:23:41.592Z,0.80
2023-05-14T12:26:09.845Z,0.70
2023-05-14T12:28:43.697Z,0.50
2023-05-14T12:31:11.489Z,0.40
2023-05-14T12:33:38.947Z,0.60
2023-05-14T12:36:17.502Z,0.60
2023-05-14T12:38:49.950Z,0.40
2023-05-14T12:41:18.346Z,0.60
2023-05-14T12:43:48.309Z,0.60
2023-05-14T12:46:16.257Z,0.30
2023-05-14T12:48:43.528Z,1.23
2023-05-14T12:51:11.042Z,0.63
2023-05-14T12:53:38.552Z,0.50
2023-05-14T12:56:06.664Z,0.73
2023-05-14T12:58:34.280Z,0.60
2023-05-14T13:01:01.785Z,0.63
2023-05-14T13:03:29.386Z,0.70
2023-05-14T13:05:56.947Z,0.88
2023-05-14T13:08:26.364Z,0.93
2023-05-14T13:10:55.095Z,0.70
2023-05-14T13:13:23.105Z,0.77
2023-05-14T13:15:50.565Z,0.50
2023-05-14T13:18:18.287Z,0.90
2023-05-14T13:20:47.874Z,0.47
2023-05-14T13:23:15.573Z,0.50
2023-05-14T13:25:43.142Z,0.50
2023-05-14T13:28:10.548Z,0.70
2023-05-14T13:30:39.103Z,0.70
2023-05-14T13:33:06.938Z,1.00
2023-05-14T13:35:34.996Z,1.00
2023-05-14T13:38:02.433Z,0.50
2023-05-14T13:40:29.790Z,1.02
2023-05-14T13:42:57.192Z,1.08
2023-05-14T13:45:24.873Z,0.50
2023-05-14T13:47:52.484Z,0.70
2023-05-14T13:50:19.983Z,0.50
2023-05-14T13:52:47.357Z,0.52
2023-05-14T13:55:15.164Z,0.50
2023-05-14T13:57:43.367Z,0.90
2023-05-14T14:00:11.466Z,0.70
2023-05-14T14:02:38.830Z,0.60
2023-05-14T14:05:06.925Z,0.90
2023-05-14T14:07:34.425Z,1.05
2023-05-14T14:10:02.651Z,0.68
2023-05-14T14:15:01.323Z,0.90
2023-05-14T14:17:32.128Z,1.60
2023-05-14T14:19:59.436Z,0.57
2023-05-14T14:22:28.996Z,1.23
2023-05-14T14:24:56.984Z,2.40
2023-05-14T14:27:24.387Z,0.80
2023-05-14T14:29:52.032Z,0.90
2023-05-14T14:32:19.488Z,1.13
2023-05-14T14:34:46.889Z,0.82
2023-05-14T14:37:14.377Z,1.08
2023-05-14T14:39:41.742Z,0.85
2023-05-14T14:42:09.128Z,0.70
2023-05-14T14:44:36.687Z,0.70
2023-05-14T14:47:05.715Z,0.70
2023-05-14T14:49:33.223Z,1.00
2023-05-14T14:52:00.802Z,0.90
2023-05-14T14:54:28.191Z,1.23
2023-05-14T14:56:55.626Z,0.85
2023-05-14T14:59:22.920Z,0.80
2023-05-14T15:01:50.461Z,1.17
2023-05-14T15:04:17.898Z,0.82
2023-05-14T15:06:45.224Z,0.75
2023-05-14T15:09:12.542Z,0.70
2023-05-14T15:11:39.878Z,0.90
2023-05-14T15:14:07.621Z,1.15
2023-05-14T15:16:35.145Z,0.85
2023-05-14T15:19:02.777Z,0.98
2023-05-14T15:21:30.304Z,0.95
2023-05-14T15:23:57.818Z,1.15
2023-05-14T15:26:26.658Z,0.95
2023-05-14T15:28:54.380Z,1.33
2023-05-14T15:31:22.409Z,1.60
2023-05-14T15:33:50.195Z,0.80
2023-05-14T15:36:33.266Z,1.20
2023-05-14T15:39:00.745Z,1.17
2023-05-14T15:41:29.004Z,0.93
2023-05-14T15:43:56.673Z,1.08
2023-05-14T15:46:24.291Z,0.80
2023-05-14T15:49:07.555Z,1.35
2023-05-14T15:51:35.389Z,0.80
2023-05-14T15:54:02.892Z,1.00
2023-05-14T15:56:31.154Z,1.00
2023-05-14T15:58:58.666Z,0.63
2023-05-14T16:01:41.779Z,0.57
2023-05-14T16:04:09.382Z,0.47
2023-05-14T16:06:37.063Z,0.70
2023-05-14T16:09:05.450Z,0.80
2023-05-14T16:11:32.859Z,0.70
2023-05-14T16:14:00.242Z,0.90
2023-05-14T16:16:27.897Z,1.00
2023-05-14T16:18:55.971Z,1.20
2023-05-14T16:21:23.552Z,1.45
2023-05-14T16:23:50.910Z,1.05
2023-05-14T16:26:18.369Z,1.30
2023-05-14T16:28:45.982Z,1.92
2023-05-14T16:31:14.160Z,1.17
2023-05-14T16:33:41.621Z,1.60
2023-05-14T16:36:09.474Z,1.20
2023-05-14T16:38:41.485Z,0.85
2023-05-14T16:41:15.689Z,1.00
2023-05-14T16:43:43.416Z,1.10
2023-05-14T16:46:10.880Z,1.17
2023-05-14T16:48:58.528Z,1.35
2023-05-14T16:51:26.152Z,1.00
2023-05-14T16:53:55.467Z,0.93
2023-05-14T16:56:23.421Z,0.95
2023-05-14T16:58:51.389Z,0.80
2023-05-14T17:01:19.061Z,1.17
2023-05-14T17:03:47.127Z,0.70
2023-05-14T17:06:14.684Z,1.20
2023-05-14T17:08:42.472Z,1.10
2023-05-14T17:11:10.011Z,1.00
2023-05-14T17:13:37.466Z,1.10
2023-05-14T17:16:05.006Z,0.98
2023-05-14T17:18:49.326Z,1.00
2023-05-14T17:21:16.757Z,1.88
2023-05-14T17:23:44.236Z,1.02
2023-05-14T17:26:27.385Z,0.90
2023-05-14T17:28:54.908Z,1.10
2023-05-14T17:31:22.686Z,1.35
2023-05-14T17:33:50.208Z,6.18
2023-05-14T17:36:33.581Z,3.75
2023-05-14T17:39:01.206Z,3.53
2023-05-14T17:41:29.101Z,5.30
2023-05-14T17:44:13.264Z,2.78
2023-05-14T17:46:56.714Z,1.92
2023-05-14T17:52:07.592Z,1.50
2023-05-14T17:54:35.187Z,1.17
2023-05-14T17:57:18.525Z,2.40
2023-05-14T17:59:46.054Z,4.18
2023-05-14T18:02:13.727Z,5.07
2023-05-14T18:04:41.269Z,3.45
2023-05-14T18:07:08.964Z,2.67
2023-05-14T18:09:52.050Z,2.10
2023-05-14T18:12:19.552Z,1.55
2023-05-14T18:14:47.183Z,2.00
2023-05-14T18:17:46.254Z,1.38
2023-05-14T18:20:29.488Z,1.33
2023-05-14T18:23:02.090Z,1.30
2023-05-14T18:25:31.212Z,1.20
2023-05-14T18:27:58.950Z,1.58
2023-05-14T18:30:26.755Z,1.40
2023-05-14T18:32:54.387Z,1.55
2023-05-14T18:35:21.985Z,1.50
2023-05-14T18:37:49.534Z,1.80
2023-05-14T18:40:18.670Z,1.40
2023-05-14T18:42:47.894Z,1.40
2023-05-14T18:45:15.553Z,1.13
2023-05-14T18:47:43.291Z,1.55
2023-05-14T18:50:11.409Z,1.45
2023-05-14T18:52:39.058Z,1.92
2023-05-14T18:55:06.983Z,1.40
2023-05-14T18:57:34.543Z,1.20
2023-05-14T19:00:02.361Z,1.98
2023-05-14T19:02:51.681Z,2.38
2023-05-14T19:05:35.251Z,1.90
2023-05-14T19:08:18.488Z,2.53
2023-05-14T19:10:45.973Z,2.20
2023-05-14T19:13:30.543Z,2.85
2023-05-14T19:15:58.207Z,2.60
2023-05-14T19:18:41.763Z,2.45
2023-05-14T19:21:09.446Z,2.03
2023-05-14T19:23:36.973Z,2.60
2023-05-14T19:26:04.475Z,3.03
2023-05-14T19:28:32.294Z,1.90
2023-05-14T19:31:16.200Z,2.60
2023-05-14T19:33:43.918Z,2.20
2023-05-14T19:36:11.588Z,2.25
2023-05-14T19:38:40.108Z,2.08
2023-05-14T19:41:07.519Z,2.17
2023-05-14T19:43:35.085Z,1.88
2023-05-14T19:46:03.020Z,1.50
2023-05-14T19:48:31.601Z,1.65
2023-05-14T19:50:59.061Z,2.42
2023-05-14T19:53:42.453Z,1.80
2023-05-14T19:56:09.982Z,1.98
2023-05-14T19:58:37.446Z,2.35
2023-05-14T20:01:05.079Z,1.38
2023-05-14T20:03:32.788Z,2.22
2023-05-14T20:06:00.254Z,1.48
2023-05-14T20:08:29.393Z,1.60
2023-05-14T20:10:56.935Z,2.15
2023-05-14T20:13:25.233Z,1.90
2023-05-14T20:15:53.023Z,1.73
2023-05-14T20:18:20.684Z,1.83
2023-05-14T20:20:48.155Z,2.03
2023-05-14T20:23:15.853Z,1.33
2023-05-14T20:25:43.436Z,1.70
2023-05-14T20:28:26.761Z,1.55
2023-05-14T20:31:09.984Z,1.38
2023-05-14T20:33:37.513Z,1.85
2023-05-14T20:36:05.595Z,1.63
2023-05-14T20:38:35.226Z,1.33
2023-05-14T20:41:02.668Z,1.40
2023-05-14T20:43:30.134Z,1.70
2023-05-14T20:45:58.661Z,1.55
2023-05-14T20:48:26.019Z,2.03
2023-05-14T20:50:53.477Z,1.40
2023-05-14T20:53:21.431Z,1.70
2023-05-14T20:55:48.827Z,1.50
2023-05-14T20:58:16.226Z,1.38
2023-05-14T21:00:43.677Z,2.15
2023-05-14T21:03:11.286Z,2.40
2023-05-14T21:05:41.720Z,3.42
2023-05-14T21:08:09.243Z,3.45
2023-05-14T21:10:36.652Z,3.58
2023-05-14T21:13:04.470Z,3.60
2023-05-14T21:15:31.885Z,4.68
2023-05-14T21:17:59.303Z,4.03
2023-05-14T21:20:26.780Z,4.80
2023-05-14T21:22:54.135Z,5.50
2023-05-14T21:25:21.557Z,5.82
2023-05-14T21:27:48.922Z,5.35
2023-05-14T21:30:16.383Z,6.78
2023-05-14T21:32:43.741Z,5.97
2023-05-14T21:35:11.113Z,6.97
2023-05-14T21:37:40.057Z,6.15
2023-05-14T21:40:09.669Z,5.55
2023-05-14T21:42:37.452Z,6.10
2023-05-14T21:45:05.181Z,4.95
2023-05-14T21:47:34.749Z,4.15
2023-05-14T21:50:02.253Z,4.18
2023-05-14T21:52:31.739Z,4.70
2023-05-14T21:54:59.073Z,4.07
2023-05-14T21:57:28.230Z,3.25
2023-05-14T21:59:56.278Z,3.35
2023-05-14T22:02:23.914Z,3.90
2023-05-14T22:04:51.426Z,4.15
2023-05-14T22:07:19.121Z,3.95
2023-05-14T22:09:46.585Z,4.03
2023-05-14T22:12:13.976Z,3.40
2023-05-14T22:14:42.175Z,3.15
2023-05-14T22:17:09.794Z,3.42
2023-05-14T22:19:37.115Z,2.90
2023-05-14T22:22:04.710Z,3.35
2023-05-14T22:24:32.039Z,2.80
2023-05-14T22:26:59.458Z,3.25
2023-05-14T22:29:27.109Z,3.85
2023-05-14T22:31:54.662Z,3.90
2023-05-14T22:34:22.017Z,3.90
2023-05-14T22:36:49.363Z,4.22
2023-05-14T22:39:16.759Z,3.65
2023-05-14T22:41:44.124Z,4.07
2023-05-14T22:44:11.484Z,4.40
2023-05-14T22:46:38.911Z,4.53
2023-05-14T22:49:06.308Z,4.28
2023-05-14T22:51:33.647Z,4.32
2023-05-14T22:54:01.017Z,4.80
2023-05-14T22:56:28.531Z,4.20
2023-05-14T22:58:56.706Z,4.13
2023-05-14T23:01:24.096Z,4.32
2023-05-14T23:03:51.630Z,3.88
2023-05-14T23:06:19.186Z,3.97
2023-05-14T23:08:46.792Z,3.85
2023-05-14T23:11:15.226Z,3.05
2023-05-14T23:13:42.586Z,2.83
2023-05-14T23:16:10.060Z,3.38
2023-05-14T23:18:37.455Z,2.72
2023-05-14T23:21:04.955Z,2.60
2023-05-14T23:23:32.286Z,2.10
2023-05-14T23:26:00.077Z,1.90
2023-05-14T23:28:27.472Z,2.05
2023-05-14T23:30:54.852Z,2.10
2023-05-14T23:33:22.200Z,2.42
2023-05-14T23:35:49.736Z,1.80
2023-05-14T23:38:17.218Z,2.30
2023-05-14T23:40:44.615Z,2.15
2023-05-14T23:43:12.047Z,2.08
2023-05-14T23:45:39.608Z,2.42
2023-05-14T23:48:07.259Z,1.77
2023-05-14T23:50:35.029Z,1.90
2023-05-14T23:53:02.512Z,2.00
2023-05-14T23:55:29.897Z,2.17
2023-05-14T23:57:57.227Z,1.70
